Capitol Logistics 409


KRFD
Chicago/Rockford International Airport
Rockford, Illinois, US
KTUL
Tulsa International Airport
Tulsa, Oklahoma, US

Activity Log

Date Flight Route Aircraft Duration
09/06/2020 CPX409 BDF J105 SGF VINTA2 B738 1h 33m
01/29/2019 CPX409 BDF J105 SGF VINTA2 B752 1h 41m
01/19/2019 CPX409 BDF J105 SGF VINTA2 B752 1h 34m

Route Details

Aircraft Information
Primary: Boeing 757-200SF
Backup: Boeing 737-800BCF
Route Data
Distance: 479nm
Sched. Duration: 1h 30m
Avg. Duration: 1h 36m (+6m)
Times Flown: 3
Recm'd Route: BDF J105 SGF VINTA2
Planned Altitude: 37,000ft
Origin Wx: KRFD 290354Z 16004KT 10SM OVC250 05/M02 A2996 RMK AO2 SLP149 T00501017
Dest. Wx: KTUL 290353Z 29005KT 2 1/2SM -RA BR SCT005 OVC009 07/06 A2977 RMK AO2 SFC VIS 3 DZE41RAB41 SLP083 P0002 T00670061
Notes:

Financial History
Total Freight: 158,482lbs
Average Load: 52,827lbs/flt
Fuel Used: 22,084lbs
Avg. Fuel Used: 7,361lbs/flt
Fuel Expense: $15,787
Avg. Fuel Expense: $5,262
Avg. Fuel Cost: $0.71/lbs
Total Gross Income: $204,829
Pilot Pay: $367
Total Expenses: $22,278
Total Revenue: $166,158
Average Revenue: $68,276.41